createdAt,value
2018-09-14T00:02:21.730Z,63.80
2018-09-14T00:04:50.776Z,77.07
2018-09-14T00:07:26.179Z,65.37
2018-09-14T00:09:55.588Z,67.57
2018-09-14T00:12:24.788Z,63.20
2018-09-14T00:14:54.039Z,57.43
2018-09-14T00:17:23.294Z,62.27
2018-09-14T00:19:52.684Z,51.93
2018-09-14T00:22:22.092Z,54.30
2018-09-14T00:24:51.311Z,54.13
2018-09-14T00:27:20.494Z,46.63
2018-09-14T00:29:49.388Z,51.87
2018-09-14T00:32:18.816Z,37.37
2018-09-14T00:34:48.349Z,43.77
2018-09-14T00:37:18.745Z,39.27
2018-09-14T00:39:48.159Z,36.20
2018-09-14T00:42:17.953Z,45.80
2018-09-14T00:44:47.548Z,36.70
2018-09-14T00:47:16.642Z,41.03
2018-09-14T00:49:45.681Z,35.70
2018-09-14T00:52:14.616Z,34.73
2018-09-14T00:54:44.029Z,29.83
2018-09-14T00:57:13.397Z,29.33
2018-09-14T00:59:42.438Z,29.80
2018-09-14T01:02:11.634Z,40.30
2018-09-14T01:04:40.800Z,30.93
2018-09-14T01:07:10.335Z,28.33
2018-09-14T01:09:39.799Z,29.73
2018-09-14T01:12:08.688Z,30.27
2018-09-14T01:14:37.561Z,25.50
2018-09-14T01:17:06.591Z,25.80
2018-09-14T01:19:35.556Z,25.37
2018-09-14T01:22:04.443Z,29.13
2018-09-14T01:24:33.710Z,29.67
2018-09-14T01:27:02.630Z,32.63
2018-09-14T01:29:31.541Z,30.83
2018-09-14T01:32:00.450Z,32.67
2018-09-14T01:34:29.329Z,26.90
2018-09-14T01:36:58.384Z,30.87
2018-09-14T01:39:27.269Z,24.83
2018-09-14T01:41:56.187Z,23.60
2018-09-14T01:44:26.000Z,35.50
2018-09-14T01:46:54.980Z,26.07
2018-09-14T01:49:23.847Z,31.23
2018-09-14T01:51:52.778Z,27.67
2018-09-14T01:54:21.828Z,30.83
2018-09-14T01:56:50.712Z,32.07
2018-09-14T01:59:19.639Z,31.27
2018-09-14T02:01:48.520Z,25.47
2018-09-14T02:04:17.412Z,26.40
2018-09-14T02:06:46.308Z,29.33
2018-09-14T02:09:15.291Z,27.93
2018-09-14T02:11:44.227Z,26.23
2018-09-14T02:14:13.180Z,23.37
2018-09-14T02:16:42.193Z,25.27
2018-09-14T02:19:11.052Z,24.17
2018-09-14T02:21:39.924Z,26.70
2018-09-14T02:24:08.814Z,25.67
2018-09-14T02:26:37.676Z,25.07
2018-09-14T02:29:06.579Z,31.23
2018-09-14T02:31:35.468Z,22.10
2018-09-14T02:34:04.371Z,30.30
2018-09-14T02:36:33.326Z,26.47
2018-09-14T02:39:02.448Z,25.13
2018-09-14T02:41:31.305Z,27.03
2018-09-14T02:44:00.184Z,29.53
2018-09-14T02:46:29.325Z,27.63
2018-09-14T02:48:58.189Z,30.90
2018-09-14T02:51:27.131Z,36.60
2018-09-14T02:53:56.113Z,31.90
2018-09-14T02:56:24.979Z,36.77
2018-09-14T02:58:54.068Z,33.10
2018-09-14T03:01:23.022Z,39.77
2018-09-14T03:03:51.893Z,30.40
2018-09-14T03:06:20.925Z,26.83
2018-09-14T03:08:49.839Z,25.73
2018-09-14T03:11:18.700Z,30.33
2018-09-14T03:13:47.573Z,30.37
2018-09-14T03:16:16.456Z,28.00
2018-09-14T03:18:45.454Z,29.03
2018-09-14T03:21:14.551Z,24.83
2018-09-14T03:23:44.038Z,27.10
2018-09-14T03:26:12.939Z,36.90
2018-09-14T03:28:41.834Z,33.00
2018-09-14T03:31:10.879Z,32.87
2018-09-14T03:33:39.788Z,37.70
2018-09-14T03:36:08.952Z,41.80
2018-09-14T03:38:38.022Z,43.67
2018-09-14T03:41:06.975Z,40.50
2018-09-14T03:43:35.946Z,41.13
2018-09-14T03:46:04.868Z,47.33
2018-09-14T03:48:33.743Z,81.73
2018-09-14T03:51:02.598Z,88.23
2018-09-14T03:53:31.528Z,74.33
2018-09-14T03:56:00.575Z,83.23
2018-09-14T03:58:29.554Z,73.53
2018-09-14T04:00:58.436Z,49.40
2018-09-14T04:03:27.316Z,52.63
2018-09-14T04:05:56.422Z,75.50
2018-09-14T04:08:25.294Z,62.27
2018-09-14T04:10:54.177Z,90.27
2018-09-14T04:13:23.109Z,64.47
2018-09-14T04:15:51.983Z,86.70
2018-09-14T04:18:20.985Z,67.63
2018-09-14T04:20:49.984Z,74.13
2018-09-14T04:23:18.885Z,76.00
2018-09-14T04:25:47.800Z,76.83
2018-09-14T04:28:16.775Z,58.77
2018-09-14T04:30:45.740Z,63.87
2018-09-14T04:33:14.623Z,69.23
2018-09-14T04:35:43.519Z,59.33
2018-09-14T04:38:12.552Z,59.90
2018-09-14T04:40:41.616Z,55.37
2018-09-14T04:43:10.509Z,62.60
2018-09-14T04:45:39.474Z,76.17
2018-09-14T04:48:08.388Z,73.23
2018-09-14T04:50:37.261Z,64.27
2018-09-14T04:53:06.597Z,65.23
2018-09-14T04:55:35.523Z,68.93
2018-09-14T04:58:04.862Z,60.67
2018-09-14T05:00:33.792Z,60.83
2018-09-14T05:03:03.258Z,53.63
2018-09-14T05:05:32.850Z,55.50
2018-09-14T05:08:01.923Z,43.20
2018-09-14T05:10:31.423Z,47.40
2018-09-14T05:13:01.161Z,55.27
2018-09-14T05:15:30.354Z,55.37
2018-09-14T05:18:01.528Z,43.13
2018-09-14T05:20:31.212Z,45.73
2018-09-14T05:23:02.270Z,45.60
2018-09-14T05:25:32.596Z,48.53
2018-09-14T05:28:01.785Z,52.50
2018-09-14T05:30:31.391Z,48.63
2018-09-14T05:33:00.617Z,52.47
2018-09-14T05:35:30.115Z,43.63
2018-09-14T05:37:59.319Z,53.87
2018-09-14T05:40:28.237Z,50.87
2018-09-14T05:42:57.880Z,49.33
2018-09-14T05:45:27.344Z,43.57
2018-09-14T05:47:56.636Z,43.53
2018-09-14T05:50:25.971Z,45.00
2018-09-14T05:52:55.005Z,43.50
2018-09-14T05:55:24.197Z,54.70
2018-09-14T05:57:53.463Z,54.40
2018-09-14T06:00:22.734Z,37.23
2018-09-14T06:02:51.964Z,54.07
2018-09-14T06:05:21.033Z,43.73
2018-09-14T06:07:50.079Z,52.20
2018-09-14T06:10:19.179Z,46.63
2018-09-14T06:12:48.220Z,45.80
2018-09-14T06:15:17.271Z,50.47
2018-09-14T06:17:47.579Z,42.17
2018-09-14T06:20:16.689Z,48.57
2018-09-14T06:22:45.836Z,41.87
2018-09-14T06:25:15.419Z,49.13
2018-09-14T06:27:44.626Z,42.63
2018-09-14T06:30:13.587Z,41.57
2018-09-14T06:32:42.712Z,42.43
2018-09-14T06:35:11.692Z,36.50
2018-09-14T06:37:40.833Z,36.07
2018-09-14T06:40:10.390Z,38.90
2018-09-14T06:42:39.502Z,37.33
2018-09-14T06:45:08.527Z,39.33
2018-09-14T06:47:37.540Z,39.67
2018-09-14T06:50:06.960Z,38.33
2018-09-14T06:52:36.298Z,44.27
2018-09-14T06:55:05.570Z,42.83
2018-09-14T06:57:34.738Z,43.23
2018-09-14T07:00:04.178Z,40.33
2018-09-14T07:02:33.673Z,41.93
2018-09-14T07:05:02.871Z,42.37
2018-09-14T07:07:32.137Z,36.63
2018-09-14T07:10:01.196Z,38.27
2018-09-14T07:12:30.247Z,38.10
2018-09-14T07:14:59.305Z,40.10
2018-09-14T07:17:28.580Z,42.20
2018-09-14T07:19:57.764Z,43.87
2018-09-14T07:22:26.960Z,38.10
2018-09-14T07:24:56.284Z,39.53
2018-09-14T07:27:25.345Z,44.17
2018-09-14T07:29:54.645Z,43.07
2018-09-14T07:32:23.874Z,38.70
2018-09-14T07:34:53.035Z,35.70
2018-09-14T07:37:22.120Z,39.47
2018-09-14T07:39:51.465Z,35.23
2018-09-14T07:42:20.384Z,36.97
2018-09-14T07:44:49.507Z,33.90
2018-09-14T07:47:18.534Z,44.80
2018-09-14T07:49:47.871Z,36.53
2018-09-14T07:52:17.115Z,33.30
2018-09-14T07:54:46.367Z,35.50
2018-09-14T07:57:15.394Z,29.10
2018-09-14T07:59:44.577Z,36.33
2018-09-14T08:02:13.634Z,33.57
2018-09-14T08:04:42.655Z,40.50
2018-09-14T08:07:11.692Z,32.23
2018-09-14T08:09:40.730Z,34.67
2018-09-14T08:12:09.753Z,24.47
2018-09-14T08:14:38.976Z,29.83
2018-09-14T08:17:08.441Z,39.07
2018-09-14T08:19:37.567Z,33.43
2018-09-14T08:22:06.645Z,33.73
2018-09-14T08:24:36.516Z,34.53
2018-09-14T08:27:05.955Z,31.40
2018-09-14T08:29:34.906Z,34.17
2018-09-14T08:32:04.127Z,27.80
2018-09-14T08:34:33.309Z,33.07
2018-09-14T08:37:02.579Z,23.83
2018-09-14T08:39:31.940Z,27.70
2018-09-14T08:42:00.827Z,29.83
2018-09-14T08:44:29.888Z,28.20
2018-09-14T08:46:59.168Z,32.97
2018-09-14T08:49:28.203Z,27.23
2018-09-14T08:51:57.163Z,23.43
2018-09-14T08:54:26.109Z,28.37
2018-09-14T08:56:55.408Z,26.67
2018-09-14T08:59:24.518Z,26.10
2018-09-14T09:01:53.441Z,29.13
2018-09-14T09:04:22.372Z,28.77
2018-09-14T09:06:51.448Z,31.23
2018-09-14T09:09:20.679Z,26.83
2018-09-14T09:11:49.950Z,23.67
2018-09-14T09:14:18.988Z,25.30
2018-09-14T09:16:48.003Z,26.30
2018-09-14T09:19:17.069Z,22.27
2018-09-14T09:21:46.020Z,21.67
2018-09-14T09:24:15.196Z,21.47
2018-09-14T09:26:44.184Z,20.63
2018-09-14T09:29:13.306Z,23.60
2018-09-14T09:31:42.358Z,22.63
2018-09-14T09:34:11.436Z,19.93
2018-09-14T09:36:40.683Z,19.80
2018-09-14T09:39:11.892Z,19.00
2018-09-14T09:41:42.136Z,15.00
2018-09-14T09:44:11.687Z,16.50
2018-09-14T09:46:41.194Z,15.77
2018-09-14T09:49:10.169Z,16.93
2018-09-14T09:51:39.244Z,17.17
2018-09-14T09:54:08.327Z,18.63
2018-09-14T09:56:37.485Z,16.60
2018-09-14T09:59:06.552Z,15.40
2018-09-14T10:01:38.951Z,16.43
2018-09-14T10:04:13.232Z,18.57
2018-09-14T10:06:42.263Z,19.40
2018-09-14T10:09:11.267Z,15.77
2018-09-14T10:11:40.562Z,14.90
2018-09-14T10:14:09.811Z,16.83
2018-09-14T10:16:38.858Z,13.17
2018-09-14T10:19:07.908Z,15.47
2018-09-14T10:21:36.908Z,15.57
2018-09-14T10:24:06.009Z,15.57
2018-09-14T10:26:35.234Z,15.93
2018-09-14T10:29:04.399Z,14.57
2018-09-14T10:31:33.424Z,20.47
2018-09-14T10:34:02.514Z,19.40
2018-09-14T10:36:31.521Z,24.03
2018-09-14T10:39:00.541Z,26.77
2018-09-14T10:41:29.604Z,28.30
2018-09-14T10:43:59.126Z,25.53
2018-09-14T10:46:28.314Z,25.40
2018-09-14T10:48:57.380Z,26.60
2018-09-14T10:51:26.463Z,24.30
2018-09-14T10:53:55.468Z,24.37
2018-09-14T10:56:24.698Z,25.83
2018-09-14T10:58:54.411Z,22.83
2018-09-14T11:01:23.513Z,21.63
2018-09-14T11:03:52.689Z,24.70
2018-09-14T11:06:21.689Z,22.23
2018-09-14T11:08:50.765Z,23.20
2018-09-14T11:11:20.149Z,20.73
2018-09-14T11:13:49.417Z,17.43
2018-09-14T11:16:18.420Z,19.07
2018-09-14T11:18:47.553Z,17.47
2018-09-14T11:21:16.883Z,14.87
2018-09-14T11:23:45.885Z,16.87
2018-09-14T11:26:15.003Z,15.33
2018-09-14T11:28:44.236Z,19.13
2018-09-14T11:31:13.566Z,14.03
2018-09-14T11:33:42.757Z,17.40
2018-09-14T11:36:11.990Z,16.77
2018-09-14T11:38:41.344Z,16.23
2018-09-14T11:41:10.330Z,17.13
2018-09-14T11:43:39.417Z,13.77
2018-09-14T11:46:08.915Z,18.17
2018-09-14T11:48:37.898Z,14.07
2018-09-14T11:51:06.979Z,15.20
2018-09-14T11:53:36.019Z,13.50
2018-09-14T11:56:05.241Z,14.63
2018-09-14T11:58:34.152Z,14.13
2018-09-14T12:01:03.242Z,12.80
2018-09-14T12:03:32.350Z,12.37
2018-09-14T12:06:01.779Z,12.00
2018-09-14T12:08:38.231Z,11.07
2018-09-14T12:11:08.125Z,11.67
2018-09-14T12:13:38.150Z,11.27
2018-09-14T12:16:07.322Z,16.47
2018-09-14T12:18:36.335Z,11.90
2018-09-14T12:21:05.473Z,10.90
2018-09-14T12:23:35.209Z,11.27
2018-09-14T12:26:04.610Z,11.67
2018-09-14T12:28:34.703Z,10.60
2018-09-14T12:31:04.634Z,12.40
2018-09-14T12:33:34.698Z,10.57
2018-09-14T12:36:04.597Z,9.07
2018-09-14T12:38:34.100Z,9.67
2018-09-14T12:41:03.465Z,10.50
2018-09-14T12:43:33.138Z,11.93
2018-09-14T12:46:02.893Z,10.67
2018-09-14T12:48:33.036Z,10.40
2018-09-14T12:51:02.990Z,11.53
2018-09-14T12:53:32.922Z,11.20
2018-09-14T12:56:02.260Z,9.77
2018-09-14T12:58:31.452Z,11.53
2018-09-14T13:01:01.231Z,11.87
2018-09-14T13:03:31.229Z,10.17
2018-09-14T13:06:01.397Z,10.13
2018-09-14T13:08:30.541Z,7.87
2018-09-14T13:11:00.798Z,8.10
2018-09-14T13:13:30.627Z,9.50
2018-09-14T13:15:59.961Z,9.37
2018-09-14T13:18:29.356Z,9.07
2018-09-14T13:20:59.483Z,8.00
2018-09-14T13:23:29.078Z,8.73
2018-09-14T13:25:58.843Z,8.87
2018-09-14T13:28:28.750Z,9.37
2018-09-14T13:30:58.331Z,8.60
2018-09-14T13:33:27.479Z,7.70
2018-09-14T13:35:56.690Z,7.67
2018-09-14T13:38:26.138Z,9.20
2018-09-14T13:40:55.061Z,8.30
2018-09-14T13:43:24.140Z,8.73
2018-09-14T13:45:53.558Z,8.57
2018-09-14T13:48:22.553Z,8.37
2018-09-14T13:50:51.667Z,8.37
2018-09-14T13:53:20.751Z,9.23
2018-09-14T13:55:49.817Z,8.83
2018-09-14T13:58:18.815Z,8.70
2018-09-14T14:00:47.895Z,9.20
2018-09-14T14:03:17.062Z,9.60
2018-09-14T14:05:46.179Z,6.70
2018-09-14T14:08:15.216Z,7.33
2018-09-14T14:10:44.227Z,8.23
2018-09-14T14:13:13.242Z,7.33
2018-09-14T14:15:42.706Z,7.27
2018-09-14T14:18:12.415Z,6.57
2018-09-14T14:20:41.845Z,6.80
2018-09-14T14:23:11.608Z,6.13
2018-09-14T14:25:40.809Z,7.57
2018-09-14T14:28:10.434Z,6.57
2018-09-14T14:30:47.058Z,7.97
2018-09-14T14:33:16.231Z,8.33
2018-09-14T14:35:45.257Z,7.80
2018-09-14T14:38:14.521Z,6.93
2018-09-14T14:40:43.571Z,9.10
2018-09-14T14:43:13.048Z,6.40
2018-09-14T14:45:42.710Z,6.63
2018-09-14T14:48:12.368Z,7.57
2018-09-14T14:50:41.977Z,7.10
2018-09-14T14:53:11.671Z,9.27
2018-09-14T14:55:41.547Z,7.20
2018-09-14T14:58:11.436Z,5.90
2018-09-14T15:00:41.153Z,6.97
2018-09-14T15:03:11.408Z,4.77
2018-09-14T15:05:41.463Z,7.13
2018-09-14T15:08:11.448Z,5.63
2018-09-14T15:10:41.838Z,5.37
2018-09-14T15:13:12.761Z,5.70
2018-09-14T15:15:42.558Z,4.70
2018-09-14T15:18:12.273Z,6.17
2018-09-14T15:20:41.952Z,7.27
2018-09-14T15:23:11.738Z,6.50
2018-09-14T15:25:41.627Z,5.63
2018-09-14T15:28:11.366Z,5.07
2018-09-14T15:30:41.285Z,5.43
2018-09-14T15:33:11.183Z,5.07
2018-09-14T15:35:41.321Z,5.50
2018-09-14T15:38:11.447Z,5.50
2018-09-14T15:40:41.920Z,7.60
2018-09-14T15:43:11.980Z,5.03
2018-09-14T15:45:41.451Z,5.77
2018-09-14T15:48:10.994Z,4.53
2018-09-14T15:50:40.582Z,5.47
2018-09-14T15:53:09.793Z,5.93
2018-09-14T15:55:39.610Z,7.13
2018-09-14T15:58:08.971Z,6.10
2018-09-14T16:00:38.416Z,6.17
2018-09-14T16:03:08.060Z,5.67
2018-09-14T16:05:38.569Z,5.27
2018-09-14T16:08:09.201Z,7.57
2018-09-14T16:10:39.436Z,4.93
2018-09-14T16:13:10.044Z,6.57
2018-09-14T16:15:40.534Z,5.47
2018-09-14T16:18:11.547Z,8.80
2018-09-14T16:20:41.717Z,11.17
2018-09-14T16:23:11.365Z,11.87
2018-09-14T16:25:41.122Z,10.50
2018-09-14T16:28:11.241Z,11.23
2018-09-14T16:30:41.199Z,9.03
2018-09-14T16:33:10.972Z,16.50
2018-09-14T16:35:41.076Z,14.73
2018-09-14T16:38:11.330Z,13.10
2018-09-14T16:40:41.043Z,12.50
2018-09-14T16:43:10.999Z,16.63
2018-09-14T16:45:40.686Z,16.57
2018-09-14T16:48:10.622Z,13.07
2018-09-14T16:50:40.309Z,15.13
2018-09-14T16:53:10.438Z,17.60
2018-09-14T16:55:40.633Z,14.83
2018-09-14T16:58:10.822Z,13.70
2018-09-14T17:00:40.843Z,13.37
2018-09-14T17:06:03.326Z,12.50
2018-09-14T17:08:33.005Z,13.40
2018-09-14T17:11:02.950Z,17.27
2018-09-14T17:13:32.934Z,16.50
2018-09-14T17:16:02.745Z,15.03
2018-09-14T17:18:32.470Z,15.97
2018-09-14T17:21:02.157Z,18.13
2018-09-14T17:23:32.017Z,16.63
2018-09-14T17:26:00.967Z,14.10
2018-09-14T17:28:30.696Z,16.63
2018-09-14T17:30:59.761Z,15.47
2018-09-14T17:33:29.303Z,21.83
2018-09-14T17:35:58.797Z,17.33
2018-09-14T17:38:28.327Z,17.33
2018-09-14T17:40:57.933Z,15.00
2018-09-14T17:43:27.905Z,15.13
2018-09-14T17:45:57.731Z,18.50
2018-09-14T17:48:27.502Z,15.43
2018-09-14T17:50:57.362Z,18.03
2018-09-14T17:53:27.376Z,14.40
2018-09-14T17:55:57.340Z,16.50
2018-09-14T17:58:27.489Z,19.50
2018-09-14T18:00:57.402Z,16.97
2018-09-14T18:03:26.707Z,13.27
2018-09-14T18:05:56.075Z,17.43
2018-09-14T18:08:25.257Z,20.47
2018-09-14T18:10:54.374Z,17.30
2018-09-14T18:13:23.291Z,18.70
2018-09-14T18:15:52.225Z,17.03
2018-09-14T18:18:21.141Z,21.33
2018-09-14T18:20:50.089Z,21.20
2018-09-14T18:23:19.249Z,18.50
2018-09-14T18:25:48.165Z,17.77
2018-09-14T18:28:17.078Z,15.63
2018-09-14T18:30:45.986Z,19.73
2018-09-14T18:33:15.010Z,17.83
2018-09-14T18:35:44.092Z,18.33
2018-09-14T18:38:13.001Z,20.67
2018-09-14T18:40:41.863Z,18.90
2018-09-14T18:43:10.883Z,16.23
2018-09-14T18:45:42.475Z,20.37
2018-09-14T18:48:11.389Z,20.13
2018-09-14T18:50:40.448Z,17.30
2018-09-14T18:53:09.717Z,17.67
2018-09-14T18:55:57.987Z,18.43
2018-09-14T18:58:28.345Z,19.23
2018-09-14T19:00:57.267Z,16.37
2018-09-14T19:03:26.187Z,17.87
2018-09-14T19:05:55.112Z,17.77
2018-09-14T19:08:23.979Z,16.57
2018-09-14T19:10:52.969Z,16.53
2018-09-14T19:13:21.998Z,15.30
2018-09-14T19:15:50.952Z,17.50
2018-09-14T19:18:19.880Z,16.30
2018-09-14T19:20:48.753Z,20.00
2018-09-14T19:23:17.727Z,17.93
2018-09-14T19:25:46.624Z,18.50
2018-09-14T19:28:15.628Z,15.97
2018-09-14T19:30:44.763Z,16.30
2018-09-14T19:33:13.744Z,17.37
2018-09-14T19:35:42.620Z,16.20
2018-09-14T19:38:11.532Z,16.93
2018-09-14T19:40:40.425Z,19.53
2018-09-14T19:43:09.532Z,15.73
2018-09-14T19:45:38.563Z,18.00
2018-09-14T19:48:07.453Z,15.27
2018-09-14T19:50:36.432Z,19.53
2018-09-14T19:53:05.404Z,18.50
2018-09-14T19:55:34.321Z,22.67
2018-09-14T19:58:03.248Z,17.80
2018-09-14T20:00:32.171Z,17.57
2018-09-14T20:03:01.076Z,18.80
2018-09-14T20:05:30.298Z,16.37
2018-09-14T20:07:59.339Z,18.50
2018-09-14T20:10:28.256Z,15.40
2018-09-14T20:12:57.301Z,17.73
2018-09-14T20:15:26.250Z,14.57
2018-09-14T20:17:55.212Z,16.53
2018-09-14T20:20:24.091Z,19.17
2018-09-14T20:22:53.067Z,17.30
2018-09-14T20:25:22.030Z,13.93
2018-09-14T20:27:51.046Z,22.20
2018-09-14T20:30:20.151Z,14.37
2018-09-14T20:32:49.071Z,15.60
2018-09-14T20:35:18.495Z,16.50
2018-09-14T20:37:47.453Z,13.87
2018-09-14T20:40:16.371Z,14.37
2018-09-14T20:42:45.279Z,16.30
2018-09-14T20:45:14.139Z,16.10
2018-09-14T20:47:43.088Z,17.33
2018-09-14T20:50:12.178Z,15.40
2018-09-14T20:52:41.309Z,14.90
2018-09-14T20:55:13.184Z,12.07
2018-09-14T20:57:42.052Z,17.03
2018-09-14T21:00:11.084Z,15.43
2018-09-14T21:02:39.968Z,15.77
2018-09-14T21:05:08.920Z,16.60
2018-09-14T21:07:37.864Z,21.87
2018-09-14T21:10:06.836Z,15.63
2018-09-14T21:12:36.031Z,13.17
2018-09-14T21:15:05.055Z,14.77
2018-09-14T21:17:33.937Z,15.03
2018-09-14T21:20:02.877Z,14.57
2018-09-14T21:22:31.843Z,16.10
2018-09-14T21:25:00.700Z,14.73
2018-09-14T21:27:29.748Z,17.93
2018-09-14T21:29:58.748Z,18.33
2018-09-14T21:32:27.725Z,22.00
2018-09-14T21:34:56.779Z,19.53
2018-09-14T21:37:25.672Z,17.60
2018-09-14T21:39:54.704Z,17.00
2018-09-14T21:42:23.586Z,17.80
2018-09-14T21:44:52.569Z,14.10
2018-09-14T21:47:21.571Z,17.80
2018-09-14T21:49:50.483Z,16.37
2018-09-14T21:52:19.536Z,15.77
2018-09-14T21:54:48.539Z,19.83
2018-09-14T21:57:17.695Z,14.47
2018-09-14T21:59:46.688Z,16.30
2018-09-14T22:02:15.729Z,15.63
2018-09-14T22:04:44.702Z,12.67
2018-09-14T22:07:13.593Z,16.50
2018-09-14T22:09:42.490Z,18.03
2018-09-14T22:12:11.443Z,15.90
2018-09-14T22:14:40.424Z,13.00
2018-09-14T22:17:09.412Z,18.70
2018-09-14T22:19:38.310Z,14.33
2018-09-14T22:22:07.363Z,20.00
2018-09-14T22:24:36.299Z,14.50
2018-09-14T22:27:05.297Z,17.03
2018-09-14T22:29:34.229Z,19.30
2018-09-14T22:32:03.260Z,14.30
2018-09-14T22:34:32.292Z,13.63
2018-09-14T22:37:01.244Z,17.07
2018-09-14T22:39:30.169Z,16.87
2018-09-14T22:41:59.144Z,20.23
2018-09-14T22:44:28.073Z,18.83
2018-09-14T22:46:56.949Z,18.50
2018-09-14T22:49:25.834Z,18.27
2018-09-14T22:51:54.723Z,17.03
2018-09-14T22:54:23.677Z,15.07
2018-09-14T22:56:52.665Z,16.67
2018-09-14T22:59:21.551Z,16.77
2018-09-14T23:01:53.058Z,16.63
2018-09-14T23:04:22.359Z,16.63
2018-09-14T23:06:51.861Z,18.97
2018-09-14T23:09:20.796Z,18.93
2018-09-14T23:11:49.684Z,11.83
2018-09-14T23:14:18.687Z,15.67
2018-09-14T23:16:47.588Z,16.53
2018-09-14T23:19:16.483Z,13.43
2018-09-14T23:21:45.416Z,15.80
2018-09-14T23:24:14.300Z,13.67
2018-09-14T23:26:43.265Z,14.03
2018-09-14T23:29:12.164Z,16.90
2018-09-14T23:31:41.057Z,12.73
2018-09-14T23:34:10.012Z,15.43
2018-09-14T23:36:38.937Z,13.23
2018-09-14T23:39:09.888Z,16.07
2018-09-14T23:41:39.076Z,17.40
2018-09-14T23:44:08.066Z,18.47
2018-09-14T23:46:37.105Z,17.53
2018-09-14T23:49:06.388Z,14.13
2018-09-14T23:51:35.341Z,16.47
2018-09-14T23:54:04.260Z,14.80
2018-09-14T23:56:33.150Z,14.77
2018-09-14T23:59:02.039Z,14.53
